createdAt,value
2022-09-23T00:01:34.274Z,2.67
2022-09-23T00:04:04.043Z,2.88
2022-09-23T00:06:32.202Z,2.35
2022-09-23T00:09:00.287Z,2.70
2022-09-23T00:11:29.477Z,2.53
2022-09-23T00:14:00.331Z,2.47
2022-09-23T00:16:30.987Z,2.10
2022-09-23T00:18:59.342Z,2.00
2022-09-23T00:21:29.406Z,2.63
2022-09-23T00:23:57.402Z,2.78
2022-09-23T00:26:25.943Z,2.50
2022-09-23T00:28:53.884Z,2.10
2022-09-23T00:31:24.564Z,2.65
2022-09-23T00:33:56.867Z,2.42
2022-09-23T00:36:25.303Z,2.60
2022-09-23T00:38:55.180Z,2.33
2022-09-23T00:41:23.940Z,2.47
2022-09-23T00:43:54.015Z,2.97
2022-09-23T00:46:24.587Z,2.00
2022-09-23T00:48:58.706Z,2.75
2022-09-23T00:51:34.641Z,2.72
2022-09-23T00:54:04.559Z,2.58
2022-09-23T00:56:34.173Z,2.75
2022-09-23T00:59:03.058Z,2.95
2022-09-23T01:01:31.136Z,3.10
2022-09-23T01:04:00.086Z,2.67
2022-09-23T01:06:29.578Z,2.50
2022-09-23T01:08:57.568Z,2.85
2022-09-23T01:11:37.423Z,3.20
2022-09-23T01:14:26.515Z,3.08
2022-09-23T01:17:00.999Z,3.28
2022-09-23T01:20:07.213Z,2.75
2022-09-23T01:22:44.763Z,3.25
2022-09-23T01:25:29.425Z,2.95
2022-09-23T01:28:19.046Z,2.80
2022-09-23T01:30:54.840Z,2.75
2022-09-23T01:33:33.909Z,2.83
2022-09-23T01:36:11.378Z,2.80
2022-09-23T01:38:46.693Z,2.10
2022-09-23T01:41:32.593Z,2.00
2022-09-23T01:44:06.916Z,1.88
2022-09-23T01:46:42.874Z,2.45
2022-09-23T01:49:18.174Z,2.15
2022-09-23T01:51:53.148Z,2.47
2022-09-23T01:54:27.685Z,2.58
2022-09-23T01:57:03.044Z,2.90
2022-09-23T01:59:36.889Z,2.42
2022-09-23T02:04:45.157Z,2.45
2022-09-23T02:07:20.861Z,2.30
2022-09-23T02:09:58.813Z,2.60
2022-09-23T02:12:30.541Z,2.13
2022-09-23T02:15:04.022Z,2.28
2022-09-23T02:17:39.761Z,2.25
2022-09-23T02:20:09.063Z,2.88
2022-09-23T02:22:42.915Z,2.40
2022-09-23T02:27:49.796Z,1.92
2022-09-23T02:30:22.487Z,2.30
2022-09-23T02:33:00.726Z,2.38
2022-09-23T02:35:33.317Z,2.10
2022-09-23T02:38:18.056Z,2.70
2022-09-23T02:40:55.276Z,2.30
2022-09-23T02:43:35.677Z,2.17
2022-09-23T02:46:05.182Z,2.42
2022-09-23T02:48:40.923Z,2.10
2022-09-23T02:51:10.100Z,2.38
2022-09-23T02:53:38.688Z,2.50
2022-09-23T02:56:16.246Z,2.42
2022-09-23T02:58:44.807Z,2.40
2022-09-23T03:01:22.055Z,2.90
2022-09-23T03:04:05.233Z,2.83
2022-09-23T03:06:41.001Z,3.17
2022-09-23T03:09:18.053Z,3.55
2022-09-23T03:11:51.878Z,3.92
2022-09-23T03:16:58.408Z,3.78
2022-09-23T03:19:34.641Z,4.00
2022-09-23T03:22:08.771Z,4.20
2022-09-23T03:24:39.519Z,4.60
2022-09-23T03:27:13.863Z,4.57
2022-09-23T03:29:45.694Z,3.20
2022-09-23T03:32:14.660Z,3.75
2022-09-23T03:34:48.376Z,4.00
2022-09-23T03:37:22.803Z,4.43
2022-09-23T03:39:56.270Z,4.20
2022-09-23T03:42:27.276Z,4.03
2022-09-23T03:44:57.806Z,3.63
2022-09-23T03:47:27.358Z,4.60
2022-09-23T03:49:56.926Z,3.92
2022-09-23T03:52:26.938Z,4.18
2022-09-23T03:54:55.342Z,4.15
2022-09-23T03:57:24.627Z,3.88
2022-09-23T03:59:53.674Z,3.42
2022-09-23T04:02:22.496Z,3.83
2022-09-23T04:04:50.914Z,3.33
2022-09-23T04:07:20.864Z,3.70
2022-09-23T04:09:48.966Z,2.97
2022-09-23T04:12:18.222Z,3.95
2022-09-23T04:14:46.678Z,3.22
2022-09-23T04:17:15.020Z,3.30
2022-09-23T04:19:43.076Z,4.15
2022-09-23T04:22:11.336Z,3.35
2022-09-23T04:24:40.923Z,3.13
2022-09-23T04:27:08.893Z,2.67
2022-09-23T04:29:36.837Z,3.35
2022-09-23T04:32:04.880Z,3.15
2022-09-23T04:34:32.838Z,3.08
2022-09-23T04:37:00.738Z,2.90
2022-09-23T04:39:28.728Z,3.28
2022-09-23T04:41:58.054Z,3.03
2022-09-23T04:44:26.933Z,3.50
2022-09-23T04:46:55.070Z,2.85
2022-09-23T04:49:23.682Z,2.97
2022-09-23T04:51:51.663Z,3.03
2022-09-23T04:54:20.234Z,3.03
2022-09-23T04:56:48.321Z,3.20
2022-09-23T04:59:18.093Z,3.20
2022-09-23T05:01:46.249Z,3.10
2022-09-23T05:04:14.939Z,2.65
2022-09-23T05:06:45.239Z,3.00
2022-09-23T05:09:17.019Z,4.10
2022-09-23T05:11:45.648Z,3.90
2022-09-23T05:14:14.260Z,2.72
2022-09-23T05:16:43.790Z,3.17
2022-09-23T05:19:11.872Z,3.20
2022-09-23T05:21:40.265Z,3.58
2022-09-23T05:24:09.017Z,3.25
2022-09-23T05:26:37.885Z,2.97
2022-09-23T05:29:06.146Z,5.65
2022-09-23T05:31:34.721Z,8.43
2022-09-23T05:34:06.415Z,8.05
2022-09-23T05:36:38.913Z,12.05
2022-09-23T05:39:08.228Z,17.13
2022-09-23T05:41:37.108Z,15.18
2022-09-23T05:44:05.577Z,12.80
2022-09-23T05:46:34.347Z,9.05
2022-09-23T05:49:04.515Z,8.32
2022-09-23T05:51:34.466Z,9.48
2022-09-23T05:54:04.368Z,12.75
2022-09-23T05:56:33.834Z,12.88
2022-09-23T05:59:03.246Z,12.65
2022-09-23T06:01:34.181Z,11.30
2022-09-23T06:04:09.284Z,9.25
2022-09-23T06:06:38.986Z,6.85
2022-09-23T06:09:08.813Z,8.05
2022-09-23T06:11:38.062Z,7.65
2022-09-23T06:14:06.635Z,7.25
2022-09-23T06:16:36.611Z,7.90
2022-09-23T06:19:07.005Z,7.70
2022-09-23T06:21:37.611Z,7.78
2022-09-23T06:24:07.010Z,8.15
2022-09-23T06:26:35.375Z,8.30
2022-09-23T06:29:04.502Z,8.88
2022-09-23T06:31:33.132Z,9.48
2022-09-23T06:34:12.411Z,9.48
2022-09-23T06:36:45.555Z,9.07
2022-09-23T06:39:15.036Z,9.95
2022-09-23T06:41:43.415Z,7.13
2022-09-23T06:44:11.347Z,7.75
2022-09-23T06:46:39.354Z,8.00
2022-09-23T06:49:07.324Z,7.60
2022-09-23T06:51:35.256Z,5.60
2022-09-23T06:54:04.901Z,7.22
2022-09-23T06:56:38.500Z,6.63
2022-09-23T06:59:07.028Z,6.45
2022-09-23T07:01:35.102Z,6.90
2022-09-23T07:04:03.792Z,7.78
2022-09-23T07:06:31.729Z,5.88
2022-09-23T07:09:01.126Z,7.55
2022-09-23T07:11:30.538Z,7.25
2022-09-23T07:13:58.805Z,8.25
2022-09-23T07:16:26.963Z,6.60
2022-09-23T07:18:54.877Z,7.47
2022-09-23T07:21:22.751Z,5.85
2022-09-23T07:23:53.638Z,6.40
2022-09-23T07:26:22.834Z,4.07
2022-09-23T07:28:56.951Z,5.72
2022-09-23T07:31:37.689Z,4.93
2022-09-23T07:34:07.925Z,5.10
2022-09-23T07:36:37.514Z,3.47
2022-09-23T07:39:05.975Z,4.70
2022-09-23T07:41:35.174Z,4.68
2022-09-23T07:44:06.307Z,5.20
2022-09-23T07:46:37.100Z,4.32
2022-09-23T07:49:06.379Z,4.53
2022-09-23T07:51:36.914Z,5.15
2022-09-23T07:54:07.487Z,5.20
2022-09-23T07:56:36.268Z,5.13
2022-09-23T07:59:08.810Z,4.45
2022-09-23T08:01:39.487Z,5.13
2022-09-23T08:04:11.778Z,4.65
2022-09-23T08:06:43.427Z,4.53
2022-09-23T08:09:11.956Z,5.10
2022-09-23T08:11:42.131Z,5.43
2022-09-23T08:14:13.589Z,5.82
2022-09-23T08:16:41.940Z,3.67
2022-09-23T08:19:10.201Z,4.35
2022-09-23T08:21:39.421Z,3.45
2022-09-23T08:24:28.165Z,3.45
2022-09-23T08:26:56.135Z,3.33
2022-09-23T08:29:26.576Z,4.60
2022-09-23T08:31:55.592Z,2.97
2022-09-23T08:34:24.710Z,4.35
2022-09-23T08:36:53.438Z,3.95
2022-09-23T08:39:22.876Z,2.92
2022-09-23T08:42:06.498Z,4.25
2022-09-23T08:44:48.877Z,4.43
2022-09-23T08:47:22.500Z,3.60
2022-09-23T08:49:59.987Z,3.53
2022-09-23T08:52:34.411Z,4.25
2022-09-23T08:55:02.989Z,3.78
2022-09-23T08:57:41.117Z,4.32
2022-09-23T09:00:18.429Z,3.70
2022-09-23T09:02:46.714Z,11.05
2022-09-23T09:05:38.410Z,5.07
2022-09-23T09:08:06.777Z,14.02
2022-09-23T09:10:42.217Z,6.00
2022-09-23T09:13:17.048Z,6.60
2022-09-23T09:15:55.220Z,10.40
2022-09-23T09:18:24.267Z,4.03
2022-09-23T09:21:00.781Z,4.35
2022-09-23T09:23:36.311Z,4.53
2022-09-23T09:26:04.954Z,3.28
2022-09-23T09:28:39.221Z,3.58
2022-09-23T09:31:30.247Z,12.93
2022-09-23T09:34:05.117Z,5.85
2022-09-23T09:36:41.439Z,4.90
2022-09-23T09:39:13.434Z,3.88
2022-09-23T09:41:44.440Z,4.20
2022-09-23T09:44:24.288Z,3.50
2022-09-23T09:47:16.328Z,2.60
2022-09-23T09:49:50.158Z,3.30
2022-09-23T09:54:52.099Z,2.45
2022-09-23T09:57:36.064Z,3.22
2022-09-23T10:00:20.920Z,2.97
2022-09-23T10:02:54.329Z,2.78
2022-09-23T10:05:28.347Z,3.22
2022-09-23T10:07:56.534Z,2.25
2022-09-23T10:10:32.718Z,2.65
2022-09-23T10:13:15.804Z,3.03
2022-09-23T10:15:45.721Z,1.70
2022-09-23T10:18:20.938Z,2.03
2022-09-23T10:20:49.561Z,2.50
2022-09-23T10:23:22.218Z,2.63
2022-09-23T10:25:58.391Z,2.38
2022-09-23T10:28:49.081Z,2.63
2022-09-23T10:31:24.620Z,3.85
2022-09-23T10:33:57.422Z,2.30
2022-09-23T10:36:25.426Z,3.07
2022-09-23T10:39:17.491Z,2.58
2022-09-23T10:42:12.880Z,3.40
2022-09-23T10:45:09.731Z,3.05
2022-09-23T10:47:46.740Z,2.63
2022-09-23T10:50:33.148Z,3.08
2022-09-23T10:53:10.418Z,2.75
2022-09-23T10:56:06.072Z,2.35
2022-09-23T10:58:59.419Z,1.98
2022-09-23T11:01:39.216Z,3.13
2022-09-23T11:04:28.849Z,2.35
2022-09-23T11:07:19.316Z,3.15
2022-09-23T11:10:18.412Z,3.63
2022-09-23T11:13:03.757Z,2.70
2022-09-23T11:15:46.059Z,2.30
2022-09-23T11:18:33.044Z,1.92
2022-09-23T11:21:24.866Z,8.13
2022-09-23T11:24:19.660Z,2.97
2022-09-23T11:26:57.095Z,2.17
2022-09-23T11:29:43.489Z,3.20
2022-09-23T11:32:40.178Z,4.82
2022-09-23T11:35:17.597Z,5.90
2022-09-23T11:37:49.460Z,2.58
2022-09-23T11:40:24.564Z,3.33
2022-09-23T11:42:59.326Z,2.75
2022-09-23T11:45:31.960Z,2.70
2022-09-23T11:48:03.830Z,3.53
2022-09-23T11:50:37.128Z,2.53
2022-09-23T11:53:10.203Z,2.97
2022-09-23T11:55:56.651Z,3.67
2022-09-23T11:58:29.391Z,3.92
2022-09-23T12:01:04.102Z,3.13
2022-09-23T12:03:44.646Z,3.08
2022-09-23T12:06:16.860Z,3.15
2022-09-23T12:08:44.872Z,2.45
2022-09-23T12:11:26.088Z,4.00
2022-09-23T12:14:05.143Z,2.33
2022-09-23T12:16:56.404Z,2.50
2022-09-23T12:19:40.825Z,2.33
2022-09-23T12:22:24.856Z,2.28
2022-09-23T12:24:58.057Z,2.67
2022-09-23T12:27:37.808Z,3.28
2022-09-23T12:30:13.390Z,3.13
2022-09-23T12:32:42.418Z,3.20
2022-09-23T12:35:23.684Z,4.60
2022-09-23T12:37:52.718Z,2.40
2022-09-23T12:40:28.551Z,2.60
2022-09-23T12:43:01.281Z,2.60
2022-09-23T12:45:38.998Z,2.65
2022-09-23T12:48:44.065Z,14.93
2022-09-23T12:52:08.632Z,2.20
2022-09-23T12:54:36.880Z,2.38
2022-09-23T12:57:07.405Z,2.45
2022-09-23T12:59:56.303Z,2.63
2022-09-23T13:02:34.841Z,2.10
2022-09-23T13:05:36.198Z,2.28
2022-09-23T13:08:09.505Z,2.38
2022-09-23T13:10:48.706Z,2.03
2022-09-23T13:13:26.785Z,2.45
2022-09-23T13:16:16.264Z,2.55
2022-09-23T13:18:58.158Z,2.30
2022-09-23T13:22:09.537Z,2.20
2022-09-23T13:24:57.923Z,2.10
2022-09-23T13:27:37.688Z,2.97
2022-09-23T13:30:08.518Z,2.35
2022-09-23T13:32:42.229Z,2.15
2022-09-23T13:35:20.012Z,2.28
2022-09-23T13:37:59.682Z,2.50
2022-09-23T13:40:29.912Z,2.00
2022-09-23T13:43:02.066Z,2.30
2022-09-23T13:45:32.325Z,2.50
2022-09-23T13:48:06.195Z,2.50
2022-09-23T13:50:39.067Z,2.20
2022-09-23T13:53:48.146Z,1.90
2022-09-23T13:57:12.524Z,1.98
2022-09-23T13:59:49.432Z,3.75
2022-09-23T14:02:18.596Z,2.88
2022-09-23T14:04:48.376Z,4.63
2022-09-23T14:07:23.601Z,2.05
2022-09-23T14:10:00.711Z,2.03
2022-09-23T14:12:35.888Z,1.70
2022-09-23T14:15:14.907Z,1.92
2022-09-23T14:17:48.170Z,2.05
2022-09-23T14:20:19.157Z,2.50
2022-09-23T14:22:47.266Z,1.85
2022-09-23T14:25:17.636Z,2.50
2022-09-23T14:27:57.309Z,2.08
2022-09-23T14:30:27.952Z,2.00
2022-09-23T14:32:56.089Z,2.20
2022-09-23T14:35:28.302Z,2.53
2022-09-23T14:38:17.096Z,2.63
2022-09-23T14:40:53.594Z,2.40
2022-09-23T14:43:25.221Z,2.20
2022-09-23T14:45:55.965Z,2.33
2022-09-23T14:48:26.679Z,2.33
2022-09-23T14:51:01.220Z,2.72
2022-09-23T14:53:49.161Z,2.60
2022-09-23T14:56:26.812Z,2.33
2022-09-23T14:58:56.508Z,2.50
2022-09-23T15:01:36.065Z,2.33
2022-09-23T15:04:18.982Z,3.10
2022-09-23T15:06:54.072Z,2.35
2022-09-23T15:09:25.075Z,1.88
2022-09-23T15:11:57.673Z,2.60
2022-09-23T15:14:38.660Z,2.28
2022-09-23T15:17:17.237Z,2.25
2022-09-23T15:19:46.701Z,2.30
2022-09-23T15:22:20.582Z,2.00
2022-09-23T15:24:49.189Z,2.35
2022-09-23T15:27:43.439Z,2.20
2022-09-23T15:30:21.840Z,2.30
2022-09-23T15:32:58.906Z,2.08
2022-09-23T15:36:03.073Z,2.40
2022-09-23T15:38:45.755Z,2.70
2022-09-23T15:41:16.148Z,5.25
2022-09-23T15:43:56.618Z,2.33
2022-09-23T15:46:37.021Z,2.58
2022-09-23T15:52:40.333Z,2.72
2022-09-23T15:55:17.105Z,2.80
2022-09-23T15:57:45.039Z,2.53
2022-09-23T16:00:14.938Z,3.28
2022-09-23T16:02:45.421Z,2.30
2022-09-23T16:05:21.190Z,2.80
2022-09-23T16:07:52.411Z,3.20
2022-09-23T16:10:24.076Z,2.38
2022-09-23T16:12:54.887Z,2.50
2022-09-23T16:15:24.774Z,5.00
2022-09-23T16:17:52.894Z,3.45
2022-09-23T16:20:20.792Z,2.70
2022-09-23T16:22:54.830Z,3.05
2022-09-23T16:25:28.343Z,2.45
2022-09-23T16:30:24.767Z,2.60
2022-09-23T16:32:54.649Z,2.90
2022-09-23T16:35:25.106Z,3.20
2022-09-23T16:37:55.745Z,3.03
2022-09-23T16:40:28.896Z,2.20
2022-09-23T16:42:59.150Z,3.00
2022-09-23T16:45:28.899Z,3.10
2022-09-23T16:47:57.191Z,2.92
2022-09-23T16:50:26.287Z,2.97
2022-09-23T16:52:57.178Z,2.90
2022-09-23T16:55:27.684Z,3.28
2022-09-23T16:57:57.900Z,2.95
2022-09-23T17:00:43.890Z,2.72
2022-09-23T17:03:31.760Z,3.05
2022-09-23T17:06:07.204Z,2.90
2022-09-23T17:08:37.036Z,2.88
2022-09-23T17:11:08.821Z,2.40
2022-09-23T17:13:36.810Z,3.30
2022-09-23T17:16:08.015Z,3.03
2022-09-23T17:18:36.364Z,2.90
2022-09-23T17:21:06.567Z,3.05
2022-09-23T17:23:37.191Z,3.13
2022-09-23T17:26:09.819Z,3.17
2022-09-23T17:28:37.878Z,3.03
2022-09-23T17:31:08.767Z,2.65
2022-09-23T17:33:38.856Z,3.33
2022-09-23T17:36:08.899Z,3.05
2022-09-23T17:38:39.217Z,2.78
2022-09-23T17:41:09.263Z,2.90
2022-09-23T17:43:38.522Z,3.10
2022-09-23T17:46:08.364Z,2.67
2022-09-23T17:48:38.312Z,3.15
2022-09-23T17:51:09.176Z,3.28
2022-09-23T17:53:38.927Z,3.08
2022-09-23T17:56:12.372Z,3.20
2022-09-23T17:58:40.597Z,3.65
2022-09-23T18:01:10.947Z,3.30
2022-09-23T18:03:39.853Z,2.53
2022-09-23T18:06:09.927Z,3.58
2022-09-23T18:08:37.887Z,4.15
2022-09-23T18:11:14.721Z,3.80
2022-09-23T18:13:42.825Z,4.47
2022-09-23T18:16:10.808Z,4.13
2022-09-23T18:18:38.765Z,4.00
2022-09-23T18:21:07.693Z,3.60
2022-09-23T18:23:37.080Z,3.50
2022-09-23T18:26:05.123Z,3.47
2022-09-23T18:28:35.078Z,6.78
2022-09-23T18:31:03.050Z,6.13
2022-09-23T18:33:30.965Z,5.35
2022-09-23T18:36:01.205Z,4.97
2022-09-23T18:38:29.100Z,4.40
2022-09-23T18:40:59.343Z,5.35
2022-09-23T18:43:37.255Z,4.70
2022-09-23T18:46:13.648Z,4.75
2022-09-23T18:48:59.108Z,4.20
2022-09-23T18:51:29.178Z,4.32
2022-09-23T18:53:58.706Z,4.53
2022-09-23T18:56:29.582Z,4.10
2022-09-23T18:58:57.911Z,3.53
2022-09-23T19:01:27.731Z,4.53
2022-09-23T19:03:59.394Z,3.35
2022-09-23T19:06:27.551Z,3.88
2022-09-23T19:08:56.405Z,4.03
2022-09-23T19:11:25.106Z,3.90
2022-09-23T19:13:57.364Z,4.20
2022-09-23T19:16:27.613Z,4.95
2022-09-23T19:18:55.567Z,4.70
2022-09-23T19:21:24.033Z,5.10
2022-09-23T19:23:54.191Z,4.68
2022-09-23T19:26:24.763Z,4.78
2022-09-23T19:28:54.673Z,4.53
2022-09-23T19:31:24.430Z,4.38
2022-09-23T19:33:56.766Z,4.30
2022-09-23T19:36:26.775Z,4.80
2022-09-23T19:38:55.832Z,4.30
2022-09-23T19:41:24.254Z,4.43
2022-09-23T19:43:53.971Z,4.28
2022-09-23T19:46:22.456Z,3.83
2022-09-23T19:48:50.868Z,3.85
2022-09-23T19:51:20.193Z,4.70
2022-09-23T19:53:48.134Z,4.55
2022-09-23T19:56:18.134Z,3.67
2022-09-23T19:58:48.333Z,4.38
2022-09-23T20:01:17.286Z,4.20
2022-09-23T20:03:45.838Z,3.55
2022-09-23T20:06:14.132Z,3.33
2022-09-23T20:08:44.279Z,3.83
2022-09-23T20:11:13.941Z,3.88
2022-09-23T20:13:44.037Z,3.72
2022-09-23T20:16:15.873Z,3.50
2022-09-23T20:18:44.169Z,3.38
2022-09-23T20:21:14.455Z,4.05
2022-09-23T20:23:44.225Z,4.43
2022-09-23T20:26:29.718Z,4.40
2022-09-23T20:28:59.525Z,5.60
2022-09-23T20:31:28.644Z,4.60
2022-09-23T20:33:58.978Z,5.70
2022-09-23T20:36:27.327Z,4.65
2022-09-23T20:38:57.701Z,4.68
2022-09-23T20:41:25.805Z,4.50
2022-09-23T20:43:54.683Z,4.53
2022-09-23T20:46:24.190Z,4.18
2022-09-23T20:48:52.204Z,5.18
2022-09-23T20:51:20.146Z,4.90
2022-09-23T20:53:51.867Z,4.22
2022-09-23T20:56:21.564Z,4.68
2022-09-23T20:58:50.980Z,6.47
2022-09-23T21:01:19.976Z,4.15
2022-09-23T21:03:50.631Z,5.68
2022-09-23T21:06:19.910Z,4.75
2022-09-23T21:08:48.098Z,5.22
2022-09-23T21:11:18.040Z,5.63
2022-09-23T21:13:49.281Z,5.38
2022-09-23T21:16:19.497Z,5.15
2022-09-23T21:18:48.174Z,4.95
2022-09-23T21:21:19.353Z,5.15
2022-09-23T21:23:48.045Z,5.35
2022-09-23T21:26:19.424Z,6.05
2022-09-23T21:28:50.138Z,5.50
2022-09-23T21:31:24.127Z,4.20
2022-09-23T21:33:55.985Z,5.20
2022-09-23T21:36:24.911Z,4.25
2022-09-23T21:38:53.991Z,5.00
2022-09-23T21:41:22.510Z,4.68
2022-09-23T21:43:52.219Z,4.70
2022-09-23T21:46:22.132Z,5.68
2022-09-23T21:48:53.451Z,5.20
2022-09-23T21:51:24.294Z,4.93
2022-09-23T21:53:53.619Z,5.45
2022-09-23T21:56:23.411Z,4.80
2022-09-23T21:58:54.339Z,4.53
2022-09-23T22:01:24.526Z,4.68
2022-09-23T22:03:54.096Z,4.30
2022-09-23T22:06:23.971Z,4.72
2022-09-23T22:08:53.266Z,4.88
2022-09-23T22:11:40.718Z,4.85
2022-09-23T22:14:12.602Z,5.18
2022-09-23T22:16:41.817Z,5.10
2022-09-23T22:19:11.200Z,4.55
2022-09-23T22:21:41.079Z,4.85
2022-09-23T22:24:10.772Z,5.35
2022-09-23T22:26:40.867Z,5.07
2022-09-23T22:29:29.909Z,5.50
2022-09-23T22:32:27.046Z,4.72
2022-09-23T22:34:55.658Z,5.68
2022-09-23T22:37:27.613Z,5.15
2022-09-23T22:39:55.579Z,5.50
2022-09-23T22:42:23.814Z,5.10
2022-09-23T22:44:53.285Z,5.18
2022-09-23T22:47:21.496Z,5.50
2022-09-23T22:49:54.653Z,4.88
2022-09-23T22:52:24.607Z,5.28
2022-09-23T22:54:52.936Z,6.60
2022-09-23T22:57:21.114Z,5.93
2022-09-23T22:59:49.787Z,6.15
2022-09-23T23:02:20.943Z,5.00
2022-09-23T23:04:49.682Z,5.47
2022-09-23T23:07:21.121Z,5.93
2022-09-23T23:09:50.601Z,6.47
2022-09-23T23:12:20.365Z,5.75
2022-09-23T23:14:49.670Z,6.53
2022-09-23T23:17:19.142Z,5.75
2022-09-23T23:19:47.584Z,5.68
2022-09-23T23:22:15.624Z,5.20
2022-09-23T23:24:43.672Z,5.50
2022-09-23T23:27:11.709Z,6.60
2022-09-23T23:29:41.756Z,6.00
2022-09-23T23:32:09.918Z,6.30
2022-09-23T23:34:39.410Z,6.05
2022-09-23T23:37:07.481Z,6.63
2022-09-23T23:39:35.683Z,6.93
2022-09-23T23:42:04.908Z,7.43
2022-09-23T23:44:34.568Z,7.18
2022-09-23T23:47:02.986Z,6.13
2022-09-23T23:49:31.493Z,7.55
2022-09-23T23:52:00.869Z,7.00
2022-09-23T23:54:28.929Z,6.35
2022-09-23T23:56:57.045Z,6.43
2022-09-23T23:59:26.040Z,5.97
